Capt. Reggie Leboeuf — WDC2585 — position and weather

sailwx.info

Track history (hours):
 
Tides and Currents Weather Stations Pressure Air Temp Water Temp Dewpoint Dewpoint Depression Visibility Wind Speed Wind Dir Waves Ship Positions

Capt. Reggie Leboeuf

Owner: Kirby Inland Marine LP, Houston, TX. More information available from US FCC via Universal Licensing System and Coast Guard Vessel Documentation Center.

Last reported at 2018-Feb-25 21:56 UTC. Time now 2018-Feb-26 03:09 UTC.
Position N 29°25' W 094°43'.

Length 116 m; draft 3 m.

Type: . MMSI: 366995280.

Date/timePositionNaut miles runAvg speedWind from/ knotsBaromVisibWave heightAir tempDewpointWater temp
2018-Feb-25 21:56N 29°25' W 094°43'0 0.0
2018-Feb-25 21:29N 29°25' W 094°43'20 3.0
2018-Feb-25 14:46N 29°36' W 094°24'5 4.3
2018-Feb-25 13:30N 29°38' W 094°18'2 4.6
2018-Feb-25 13:00N 29°39' W 094°16'3 5.4
2018-Feb-25 12:28N 29°40' W 094°13'2 4.5
2018-Feb-25 12:00N 29°41' W 094°11'0 0.1
2018-Feb-25 11:30N 29°41' W 094°11'1 2.2
2018-Feb-25 11:00N 29°41' W 094°10'3 5.4
2018-Feb-25 10:30N 29°43' W 094°07'3 5.3
2018-Feb-25 10:00N 29°45' W 094°05'2 4.3
2018-Feb-25 09:30N 29°46' W 094°03'3 5.4
2018-Feb-25 09:00N 29°48' W 094°00'3 5.5
2018-Feb-25 08:30N 29°49' W 093°58'4 7.6
2018-Feb-25 08:00N 29°53' W 093°55'4 8.1
2018-Feb-25 07:30N 29°56' W 093°53'3 5.7
2018-Feb-25 07:00N 29°58' W 093°51'0 0.4
2018-Feb-25 06:30N 29°58' W 093°51'0 0.0
2018-Feb-25 06:00N 29°58' W 093°51'0 0.0
2018-Feb-25 05:30N 29°58' W 093°51'0 0.0
2018-Feb-25 05:00N 29°58' W 093°51'0 0.0
2018-Feb-25 04:30N 29°58' W 093°51'0 0.0
2018-Feb-25 04:00N 29°58' W 093°51'1 1.3
2018-Feb-25 03:30N 29°59' W 093°50'3 5.3
2018-Feb-25 03:00N 29°60' W 093°47'2 3.9
2018-Feb-25 02:30N 30°01' W 093°46'0 0.0
2018-Feb-25 02:01N 30°01' W 093°46'1 2.3
2018-Feb-25 01:30N 30°01' W 093°44'3 5.2
2018-Feb-25 01:00N 30°03' W 093°42'3 5.3
2018-Feb-25 00:30N 30°04' W 093°39'3 5.4
2018-Feb-25 00:00N 30°04' W 093°36'3 5.8
2018-Feb-24 23:29N 30°04' W 093°33'3 5.3
2018-Feb-24 23:00N 30°04' W 093°30'3 5.5
2018-Feb-24 22:30N 30°04' W 093°27'3 6.0
2018-Feb-24 22:01N 30°04' W 093°23'3 5.7
2018-Feb-24 21:30N 30°05' W 093°20'3 5.4
2018-Feb-24 21:01N 30°07' W 093°20'3 5.8
2018-Feb-24 20:30N 30°10' W 093°19'3 6.3
2018-Feb-24 20:00N 30°12' W 093°16'2 3.5
2018-Feb-24 19:30N 30°14' W 093°15'0 0.0
2018-Feb-24 19:00N 30°14' W 093°15'0 0.0
2018-Feb-24 18:30N 30°14' W 093°15'0 0.0
2018-Feb-24 18:01N 30°14' W 093°15'0 0.0
2018-Feb-24 17:30N 30°14' W 093°15'0 0.0
2018-Feb-24 17:00N 30°14' W 093°15'0 0.0
2018-Feb-24 16:29N 30°14' W 093°15'0 0.0
2018-Feb-24 15:56N 30°14' W 093°15'0 0.0
2018-Feb-24 15:30N 30°14' W 093°15'0 0.0
2018-Feb-24 15:00N 30°14' W 093°15'0 0.0
2018-Feb-24 14:30N 30°14' W 093°15'0 0.0
2018-Feb-24 14:00N 30°14' W 093°15'0 0.0
2018-Feb-24 13:29N 30°14' W 093°15'0 0.0
2018-Feb-24 13:01N 30°14' W 093°15'0 0.0
2018-Feb-24 12:29N 30°14' W 093°15'0 0.0
2018-Feb-24 12:01N 30°14' W 093°15'0 0.0
2018-Feb-24 11:30N 30°14' W 093°15'0 0.0
2018-Feb-24 11:00N 30°14' W 093°15'0 0.0
2018-Feb-24 10:30N 30°14' W 093°15'0 0.0
2018-Feb-24 10:00N 30°14' W 093°15'0 0.0
2018-Feb-24 09:31N 30°14' W 093°15'0 0.0
2018-Feb-24 09:00N 30°14' W 093°15'0 0.0
2018-Feb-24 08:31N 30°14' W 093°15'0 0.0
2018-Feb-24 08:00N 30°14' W 093°15'0 0.0
2018-Feb-24 07:30N 30°14' W 093°15'0 0.0
2018-Feb-24 07:00N 30°14' W 093°15'0 0.0
2018-Feb-24 06:30N 30°14' W 093°15'0 0.0
2018-Feb-24 06:00N 30°14' W 093°15'0 0.0
2018-Feb-24 05:29N 30°14' W 093°15'0 0.0
2018-Feb-24 04:59N 30°14' W 093°15'0 0.0
2018-Feb-24 04:29N 30°14' W 093°15'0 0.0
2018-Feb-24 04:01N 30°14' W 093°15'0 0.9
2018-Feb-24 03:30N 30°14' W 093°16'0 0.1
2018-Feb-24 03:01N 30°14' W 093°16'0 0.0
2018-Feb-24 02:30N 30°14' W 093°16'0 0.0
2018-Feb-24 02:00N 30°14' W 093°16'0 0.0
2018-Feb-24 01:30N 30°14' W 093°16'0 0.0
2018-Feb-24 01:01N 30°14' W 093°16'0 0.0
2018-Feb-24 00:30N 30°14' W 093°16'0 0.0
2018-Feb-23 23:51N 30°14' W 093°16'0 0.0
2018-Feb-23 23:27N 30°14' W 093°16'2 1.9
2018-Feb-23 22:39N 30°12' W 093°17'10 2.7
2018-Feb-23 19:07N 30°04' W 093°22'0 0.0
2018-Feb-23 18:41N 30°04' W 093°22'0 0.0
2018-Feb-23 18:15N 30°04' W 093°22'0 0.0
2018-Feb-23 08:51N 30°04' W 093°22'0 0.0
2018-Feb-23 08:26N 30°04' W 093°22'0 0.0
2018-Feb-23 06:38N 30°04' W 093°22'0 0.0
2018-Feb-23 04:58N 30°04' W 093°22'0 0.0
2018-Feb-23 04:30N 30°04' W 093°22'0 0.0
2018-Feb-23 03:56N 30°04' W 093°22'0 0.0
2018-Feb-23 03:28N 30°04' W 093°22'0 0.0
2018-Feb-23 03:00N 30°04' W 093°22'0 0.0
2018-Feb-23 02:30N 30°04' W 093°22'0 0.0
2018-Feb-23 02:00N 30°04' W 093°22'0 0.0
2018-Feb-23 01:30N 30°04' W 093°22'0 0.0
2018-Feb-23 01:00N 30°04' W 093°22'0 0.0
2018-Feb-23 00:30N 30°04' W 093°22'0 0.0
2018-Feb-23 00:00N 30°04' W 093°22'0 0.0
2018-Feb-22 23:28N 30°04' W 093°22'0 0.0
2018-Feb-22 23:00N 30°04' W 093°22'12 1.1
2018-Feb-22 12:05N 30°04' W 093°36'1 5.4
2018-Feb-22 11:57N 30°04' W 093°37'2 5.0
2018-Feb-22 11:30N 30°04' W 093°39'3 5.3
2018-Feb-22 11:00N 30°03' W 093°42'2 5.0
2018-Feb-22 10:30N 30°01' W 093°44'3 5.3
2018-Feb-22 10:00N 29°60' W 093°47'3 5.5
2018-Feb-22 09:30N 29°59' W 093°50'2 4.9
2018-Feb-22 09:00N 29°57' W 093°52'3 5.7
2018-Feb-22 08:30N 29°55' W 093°54'3 5.7
2018-Feb-22 08:00N 29°52' W 093°56'3 5.3
2018-Feb-22 07:30N 29°50' W 093°57'2 3.7
2018-Feb-22 07:00N 29°49' W 093°59'0 0.1
2018-Feb-22 06:30N 29°49' W 093°59'0 0.0
2018-Feb-22 06:00N 29°49' W 093°59'0 0.0
2018-Feb-22 05:30N 29°49' W 093°59'0 0.7
2018-Feb-22 05:00N 29°49' W 093°59'3 5.6
2018-Feb-22 04:30N 29°47' W 094°02'3 5.7
2018-Feb-22 04:00N 29°45' W 094°04'3 5.5
2018-Feb-22 03:31N 29°43' W 094°07'3 5.6
2018-Feb-22 03:00N 29°42' W 094°09'3 5.4
2018-Feb-22 02:30N 29°41' W 094°12'2 4.5
2018-Feb-22 01:59N 29°40' W 094°15'9 4.7
2018-Feb-22 00:02N 29°36' W 094°24'25 2.7
2018-Feb-21 14:35N 29°31' W 094°53'1 6.7
2018-Feb-21 14:30N 29°31' W 094°53'3 6.1
2018-Feb-21 14:00N 29°34' W 094°55'3 6.7
2018-Feb-21 13:30N 29°36' W 094°57'3 5.4
2018-Feb-21 13:00N 29°37' W 095°00'1 1.9
2018-Feb-21 12:30N 29°37' W 095°01'0 0.0
2018-Feb-21 12:00N 29°37' W 095°01'1 1.1
2018-Feb-21 11:30N 29°37' W 095°01'0 0.0
2018-Feb-21 11:00N 29°37' W 095°01'1 1.1
2018-Feb-21 10:30N 29°37' W 095°01'0 0.0
2018-Feb-21 10:00N 29°37' W 095°01'0 0.3
2018-Feb-21 09:31N 29°37' W 095°01'0 0.0
2018-Feb-21 09:01N 29°37' W 095°01'0 0.1
2018-Feb-21 08:30N 29°37' W 095°02'0 0.0
2018-Feb-21 07:59N 29°37' W 095°02'0 0.0
2018-Feb-21 07:31N 29°37' W 095°02'0 0.0
2018-Feb-21 07:00N 29°37' W 095°02'0 0.0
2018-Feb-21 06:30N 29°37' W 095°02'0 0.0
2018-Feb-21 05:59N 29°37' W 095°02'0 0.0
2018-Feb-21 05:30N 29°37' W 095°02'0 0.0
2018-Feb-21 05:00N 29°37' W 095°02'0 0.0
2018-Feb-21 04:30N 29°37' W 095°02'0 0.0
2018-Feb-21 04:01N 29°37' W 095°02'0 0.0
2018-Feb-21 03:30N 29°37' W 095°02'0 0.0
2018-Feb-21 03:00N 29°37' W 095°02'0 0.0
2018-Feb-21 02:31N 29°37' W 095°02'0 0.0
2018-Feb-21 02:00N 29°37' W 095°02'0 0.0
2018-Feb-21 01:30N 29°37' W 095°02'0 0.0
2018-Feb-21 01:00N 29°37' W 095°02'0 0.0
2018-Feb-21 00:31N 29°37' W 095°02'0 0.0
2018-Feb-21 00:00N 29°37' W 095°02'0 0.0
2018-Feb-20 23:30N 29°37' W 095°02'0 0.0
2018-Feb-20 23:00N 29°37' W 095°02'0 0.0
2018-Feb-20 22:31N 29°37' W 095°02'0 0.0
2018-Feb-20 22:01N 29°37' W 095°02'0 0.0
2018-Feb-20 21:30N 29°37' W 095°02'0 0.0
2018-Feb-20 21:01N 29°37' W 095°02'0 0.0
2018-Feb-20 20:30N 29°37' W 095°02'0 0.0
2018-Feb-20 20:00N 29°37' W 095°02'0 0.0
2018-Feb-20 19:30N 29°37' W 095°02'0 0.0
2018-Feb-20 19:00N 29°37' W 095°02'0 0.3
2018-Feb-20 18:30N 29°37' W 095°01'0 0.3
2018-Feb-20 18:00N 29°37' W 095°01'0 0.1
2018-Feb-20 17:30N 29°37' W 095°01'0 0.1
2018-Feb-20 17:01N 29°37' W 095°01'0 0.0
2018-Feb-20 16:31N 29°37' W 095°01'0 0.0
2018-Feb-20 16:00N 29°37' W 095°01'0 0.0
2018-Feb-20 15:30N 29°37' W 095°01'0 0.0
2018-Feb-20 15:00N 29°37' W 095°01'0 0.0
2018-Feb-20 14:30N 29°37' W 095°01'0 0.0
2018-Feb-20 14:01N 29°37' W 095°01'0 0.0
2018-Feb-20 13:30N 29°37' W 095°01'0 0.0
2018-Feb-20 13:00N 29°37' W 095°01'0 0.0
2018-Feb-20 11:41N 29°37' W 095°01'0 0.0
2018-Feb-20 11:16N 29°37' W 095°01'0 0.0
2018-Feb-20 11:00N 29°37' W 095°01'0 0.1
2018-Feb-20 08:43N 29°37' W 095°02'0 0.0
2018-Feb-20 08:21N 29°37' W 095°02'0 0.0
2018-Feb-20 08:00N 29°37' W 095°02'0 0.0
2018-Feb-20 07:30N 29°37' W 095°02'0 0.0
2018-Feb-20 07:00N 29°37' W 095°02'0 0.0
2018-Feb-20 06:29N 29°37' W 095°02'0 0.0
2018-Feb-20 06:01N 29°37' W 095°02'0 0.2
2018-Feb-20 05:30N 29°37' W 095°02'0 0.1
2018-Feb-20 05:00N 29°37' W 095°02'0 0.9
2018-Feb-20 04:30N 29°37' W 095°01'3 6.1
2018-Feb-20 04:00N 29°37' W 094°58'3 6.8
2018-Feb-20 03:30N 29°41' W 094°59'3 6.0
2018-Feb-20 03:00N 29°43' W 095°01'4 5.8
2018-Feb-20 02:14N 29°46' W 095°05'0 1.1
2018-Feb-20 01:58N 29°46' W 095°06'0 0.1
2018-Feb-20 01:29N 29°45' W 095°06'0 0.1
2018-Feb-20 00:59N 29°46' W 095°06'0 0.0
2018-Feb-19 22:23N 29°46' W 095°06'2 0.7
2018-Feb-19 20:02N 29°47' W 095°05'1 5.6
2018-Feb-19 19:47N 29°46' W 095°06'0 0.1
2018-Feb-19 17:23N 29°46' W 095°05'3 1.3
2018-Feb-19 15:21N 29°44' W 095°03'0 0.6
2018-Feb-19 14:56N 29°44' W 095°03'0 0.3
2018-Feb-19 14:27N 29°44' W 095°03'2 3.5
2018-Feb-19 13:59N 29°45' W 095°04'1 0.2
2018-Feb-19 09:09N 29°46' W 095°06'0 0.0
2018-Feb-19 08:57N 29°46' W 095°06'1 1.3
2018-Feb-19 08:29N 29°45' W 095°06'0 0.7
2018-Feb-19 08:00N 29°45' W 095°06'1 1.7
2018-Feb-19 07:28N 29°46' W 095°06'0 0.0
2018-Feb-19 07:00N 29°46' W 095°06'0 0.0
2018-Feb-19 06:29N 29°46' W 095°06'0 0.0
2018-Feb-19 06:00N 29°46' W 095°06'0 0.0
2018-Feb-19 05:30N 29°46' W 095°06'0 0.0
2018-Feb-19 05:00N 29°46' W 095°06'0 0.0
2018-Feb-19 04:23N 29°46' W 095°06'0 0.0
2018-Feb-19 01:41N 29°46' W 095°06'0 0.1
2018-Feb-18 22:44N 29°45' W 095°06'0 0.1
2018-Feb-18 22:25N 29°45' W 095°06'0 0.1
2018-Feb-18 19:07N 29°46' W 095°05'0 0.2
2018-Feb-18 17:45N 29°46' W 095°06'0 0.0
2018-Feb-18 17:25N 29°46' W 095°06'0 0.0
2018-Feb-18 16:29N 29°46' W 095°06'0 0.0
2018-Feb-18 16:00N 29°46' W 095°06'0 0.0
2018-Feb-18 14:43N 29°46' W 095°06'0 0.0
2018-Feb-18 11:40N 29°46' W 095°06'0 0.9
2018-Feb-18 11:19N 29°46' W 095°06'0 0.0
2018-Feb-18 02:41N 29°45' W 095°06'0 0.0
2018-Feb-18 00:44N 29°45' W 095°06'0 0.3
2018-Feb-18 00:29N 29°45' W 095°06'0 0.5
2018-Feb-18 00:00N 29°46' W 095°05'0 0.0
2018-Feb-17 07:10N 29°45' W 095°06'0 0.0
2018-Feb-17 06:43N 29°45' W 095°06'0 0.0
2018-Feb-16 11:26N 29°46' W 095°06'0 0.0
2018-Feb-16 10:56N 29°46' W 095°06'0 0.0
2018-Feb-16 10:28N 29°46' W 095°06'0 0.0
2018-Feb-16 09:56N 29°46' W 095°06'0 0.0
2018-Feb-16 09:24N 29°46' W 095°06'0 0.0
2018-Feb-16 08:52N 29°46' W 095°06'0 0.0
2018-Feb-16 08:21N 29°46' W 095°06'0 0.0
2018-Feb-16 07:54N 29°46' W 095°06'0 0.0
2018-Feb-16 07:27N 29°46' W 095°06'0 0.0
2018-Feb-16 07:00N 29°46' W 095°06'0 0.0
2018-Feb-16 06:27N 29°46' W 095°06'0 0.0
2018-Feb-16 05:57N 29°46' W 095°06'0 0.0
2018-Feb-16 05:20N 29°46' W 095°06'0 0.0
2018-Feb-16 04:51N 29°46' W 095°06'0 0.0
2018-Feb-16 04:30N 29°46' W 095°06'0 0.0
2018-Feb-16 03:59N 29°46' W 095°06'0 0.0
2018-Feb-16 03:30N 29°46' W 095°06'0 0.0
2018-Feb-16 02:57N 29°46' W 095°06'0 0.0
2018-Feb-16 02:30N 29°46' W 095°06'0 0.0
2018-Feb-16 01:58N 29°46' W 095°06'0 0.0
2018-Feb-16 01:30N 29°46' W 095°06'0 0.0
2018-Feb-16 00:59N 29°46' W 095°06'  
Track history (hours):
 
Tides and Currents Weather Stations Pressure Air Temp Water Temp Dewpoint Dewpoint Depression Visibility Wind Speed Wind Dir Waves Ship Positions

Capt. Reggie Leboeuf

Owner: Kirby Inland Marine LP, Houston, TX. More information available from US FCC via Universal Licensing System and Coast Guard Vessel Documentation Center.

Last reported at 2018-Feb-25 21:56 UTC. Time now 2018-Feb-26 03:09 UTC.
Position N 29°25' W 094°43'.

Length 116 m; draft 3 m.

Type: . MMSI: 366995280.

Date/timePositionNaut miles runAvg speedWind from/ knotsBaromVisibWave heightAir tempDewpointWater temp
2018-Feb-25 21:56N 29°25' W 094°43'0 0.0
2018-Feb-25 21:29N 29°25' W 094°43'20 3.0
2018-Feb-25 14:46N 29°36' W 094°24'5 4.3
2018-Feb-25 13:30N 29°38' W 094°18'2 4.6
2018-Feb-25 13:00N 29°39' W 094°16'3 5.4
2018-Feb-25 12:28N 29°40' W 094°13'2 4.5
2018-Feb-25 12:00N 29°41' W 094°11'0 0.1
2018-Feb-25 11:30N 29°41' W 094°11'1 2.2
2018-Feb-25 11:00N 29°41' W 094°10'3 5.4
2018-Feb-25 10:30N 29°43' W 094°07'3 5.3
2018-Feb-25 10:00N 29°45' W 094°05'2 4.3
2018-Feb-25 09:30N 29°46' W 094°03'3 5.4
2018-Feb-25 09:00N 29°48' W 094°00'3 5.5
2018-Feb-25 08:30N 29°49' W 093°58'4 7.6
2018-Feb-25 08:00N 29°53' W 093°55'4 8.1
2018-Feb-25 07:30N 29°56' W 093°53'3 5.7
2018-Feb-25 07:00N 29°58' W 093°51'0 0.4
2018-Feb-25 06:30N 29°58' W 093°51'0 0.0
2018-Feb-25 06:00N 29°58' W 093°51'0 0.0
2018-Feb-25 05:30N 29°58' W 093°51'0 0.0
2018-Feb-25 05:00N 29°58' W 093°51'0 0.0
2018-Feb-25 04:30N 29°58' W 093°51'0 0.0
2018-Feb-25 04:00N 29°58' W 093°51'1 1.3
2018-Feb-25 03:30N 29°59' W 093°50'3 5.3
2018-Feb-25 03:00N 29°60' W 093°47'2 3.9
2018-Feb-25 02:30N 30°01' W 093°46'0 0.0
2018-Feb-25 02:01N 30°01' W 093°46'1 2.3
2018-Feb-25 01:30N 30°01' W 093°44'3 5.2
2018-Feb-25 01:00N 30°03' W 093°42'3 5.3
2018-Feb-25 00:30N 30°04' W 093°39'3 5.4
2018-Feb-25 00:00N 30°04' W 093°36'3 5.8
2018-Feb-24 23:29N 30°04' W 093°33'3 5.3
2018-Feb-24 23:00N 30°04' W 093°30'3 5.5
2018-Feb-24 22:30N 30°04' W 093°27'3 6.0
2018-Feb-24 22:01N 30°04' W 093°23'3 5.7
2018-Feb-24 21:30N 30°05' W 093°20'3 5.4
2018-Feb-24 21:01N 30°07' W 093°20'3 5.8
2018-Feb-24 20:30N 30°10' W 093°19'3 6.3
2018-Feb-24 20:00N 30°12' W 093°16'2 3.5
2018-Feb-24 19:30N 30°14' W 093°15'0 0.0
2018-Feb-24 19:00N 30°14' W 093°15'0 0.0
2018-Feb-24 18:30N 30°14' W 093°15'0 0.0
2018-Feb-24 18:01N 30°14' W 093°15'0 0.0
2018-Feb-24 17:30N 30°14' W 093°15'0 0.0
2018-Feb-24 17:00N 30°14' W 093°15'0 0.0
2018-Feb-24 16:29N 30°14' W 093°15'0 0.0
2018-Feb-24 15:56N 30°14' W 093°15'0 0.0
2018-Feb-24 15:30N 30°14' W 093°15'0 0.0
2018-Feb-24 15:00N 30°14' W 093°15'0 0.0
2018-Feb-24 14:30N 30°14' W 093°15'0 0.0
2018-Feb-24 14:00N 30°14' W 093°15'0 0.0
2018-Feb-24 13:29N 30°14' W 093°15'0 0.0
2018-Feb-24 13:01N 30°14' W 093°15'0 0.0
2018-Feb-24 12:29N 30°14' W 093°15'0 0.0
2018-Feb-24 12:01N 30°14' W 093°15'0 0.0
2018-Feb-24 11:30N 30°14' W 093°15'0 0.0
2018-Feb-24 11:00N 30°14' W 093°15'0 0.0
2018-Feb-24 10:30N 30°14' W 093°15'0 0.0
2018-Feb-24 10:00N 30°14' W 093°15'0 0.0
2018-Feb-24 09:31N 30°14' W 093°15'0 0.0
2018-Feb-24 09:00N 30°14' W 093°15'0 0.0
2018-Feb-24 08:31N 30°14' W 093°15'0 0.0
2018-Feb-24 08:00N 30°14' W 093°15'0 0.0
2018-Feb-24 07:30N 30°14' W 093°15'0 0.0
2018-Feb-24 07:00N 30°14' W 093°15'0 0.0
2018-Feb-24 06:30N 30°14' W 093°15'0 0.0
2018-Feb-24 06:00N 30°14' W 093°15'0 0.0
2018-Feb-24 05:29N 30°14' W 093°15'0 0.0
2018-Feb-24 04:59N 30°14' W 093°15'0 0.0
2018-Feb-24 04:29N 30°14' W 093°15'0 0.0
2018-Feb-24 04:01N 30°14' W 093°15'0 0.9
2018-Feb-24 03:30N 30°14' W 093°16'0 0.1
2018-Feb-24 03:01N 30°14' W 093°16'0 0.0
2018-Feb-24 02:30N 30°14' W 093°16'0 0.0
2018-Feb-24 02:00N 30°14' W 093°16'0 0.0
2018-Feb-24 01:30N 30°14' W 093°16'0 0.0
2018-Feb-24 01:01N 30°14' W 093°16'0 0.0
2018-Feb-24 00:30N 30°14' W 093°16'0 0.0
2018-Feb-23 23:51N 30°14' W 093°16'0 0.0
2018-Feb-23 23:27N 30°14' W 093°16'2 1.9
2018-Feb-23 22:39N 30°12' W 093°17'10 2.7
2018-Feb-23 19:07N 30°04' W 093°22'0 0.0
2018-Feb-23 18:41N 30°04' W 093°22'0 0.0
2018-Feb-23 18:15N 30°04' W 093°22'0 0.0
2018-Feb-23 08:51N 30°04' W 093°22'0 0.0
2018-Feb-23 08:26N 30°04' W 093°22'0 0.0
2018-Feb-23 06:38N 30°04' W 093°22'0 0.0
2018-Feb-23 04:58N 30°04' W 093°22'0 0.0
2018-Feb-23 04:30N 30°04' W 093°22'0 0.0
2018-Feb-23 03:56N 30°04' W 093°22'0 0.0
2018-Feb-23 03:28N 30°04' W 093°22'0 0.0
2018-Feb-23 03:00N 30°04' W 093°22'0 0.0
2018-Feb-23 02:30N 30°04' W 093°22'0 0.0
2018-Feb-23 02:00N 30°04' W 093°22'0 0.0
2018-Feb-23 01:30N 30°04' W 093°22'0 0.0
2018-Feb-23 01:00N 30°04' W 093°22'0 0.0
2018-Feb-23 00:30N 30°04' W 093°22'0 0.0
2018-Feb-23 00:00N 30°04' W 093°22'0 0.0
2018-Feb-22 23:28N 30°04' W 093°22'0 0.0
2018-Feb-22 23:00N 30°04' W 093°22'12 1.1
2018-Feb-22 12:05N 30°04' W 093°36'1 5.4
2018-Feb-22 11:57N 30°04' W 093°37'2 5.0
2018-Feb-22 11:30N 30°04' W 093°39'3 5.3
2018-Feb-22 11:00N 30°03' W 093°42'2 5.0
2018-Feb-22 10:30N 30°01' W 093°44'3 5.3
2018-Feb-22 10:00N 29°60' W 093°47'3 5.5
2018-Feb-22 09:30N 29°59' W 093°50'2 4.9
2018-Feb-22 09:00N 29°57' W 093°52'3 5.7
2018-Feb-22 08:30N 29°55' W 093°54'3 5.7
2018-Feb-22 08:00N 29°52' W 093°56'3 5.3
2018-Feb-22 07:30N 29°50' W 093°57'2 3.7
2018-Feb-22 07:00N 29°49' W 093°59'0 0.1
2018-Feb-22 06:30N 29°49' W 093°59'0 0.0
2018-Feb-22 06:00N 29°49' W 093°59'0 0.0
2018-Feb-22 05:30N 29°49' W 093°59'0 0.7
2018-Feb-22 05:00N 29°49' W 093°59'3 5.6
2018-Feb-22 04:30N 29°47' W 094°02'3 5.7
2018-Feb-22 04:00N 29°45' W 094°04'3 5.5
2018-Feb-22 03:31N 29°43' W 094°07'3 5.6
2018-Feb-22 03:00N 29°42' W 094°09'3 5.4
2018-Feb-22 02:30N 29°41' W 094°12'2 4.5
2018-Feb-22 01:59N 29°40' W 094°15'9 4.7
2018-Feb-22 00:02N 29°36' W 094°24'25 2.7
2018-Feb-21 14:35N 29°31' W 094°53'1 6.7
2018-Feb-21 14:30N 29°31' W 094°53'3 6.1
2018-Feb-21 14:00N 29°34' W 094°55'3 6.7
2018-Feb-21 13:30N 29°36' W 094°57'3 5.4
2018-Feb-21 13:00N 29°37' W 095°00'1 1.9
2018-Feb-21 12:30N 29°37' W 095°01'0 0.0
2018-Feb-21 12:00N 29°37' W 095°01'1 1.1
2018-Feb-21 11:30N 29°37' W 095°01'0 0.0
2018-Feb-21 11:00N 29°37' W 095°01'1 1.1
2018-Feb-21 10:30N 29°37' W 095°01'0 0.0
2018-Feb-21 10:00N 29°37' W 095°01'0 0.3
2018-Feb-21 09:31N 29°37' W 095°01'0 0.0
2018-Feb-21 09:01N 29°37' W 095°01'0 0.1
2018-Feb-21 08:30N 29°37' W 095°02'0 0.0
2018-Feb-21 07:59N 29°37' W 095°02'0 0.0
2018-Feb-21 07:31N 29°37' W 095°02'0 0.0
2018-Feb-21 07:00N 29°37' W 095°02'0 0.0
2018-Feb-21 06:30N 29°37' W 095°02'0 0.0
2018-Feb-21 05:59N 29°37' W 095°02'0 0.0
2018-Feb-21 05:30N 29°37' W 095°02'0 0.0
2018-Feb-21 05:00N 29°37' W 095°02'0 0.0
2018-Feb-21 04:30N 29°37' W 095°02'0 0.0
2018-Feb-21 04:01N 29°37' W 095°02'0 0.0
2018-Feb-21 03:30N 29°37' W 095°02'0 0.0
2018-Feb-21 03:00N 29°37' W 095°02'0 0.0
2018-Feb-21 02:31N 29°37' W 095°02'0 0.0
2018-Feb-21 02:00N 29°37' W 095°02'0 0.0
2018-Feb-21 01:30N 29°37' W 095°02'0 0.0
2018-Feb-21 01:00N 29°37' W 095°02'0 0.0
2018-Feb-21 00:31N 29°37' W 095°02'0 0.0
2018-Feb-21 00:00N 29°37' W 095°02'0 0.0
2018-Feb-20 23:30N 29°37' W 095°02'0 0.0
2018-Feb-20 23:00N 29°37' W 095°02'0 0.0
2018-Feb-20 22:31N 29°37' W 095°02'0 0.0
2018-Feb-20 22:01N 29°37' W 095°02'0 0.0
2018-Feb-20 21:30N 29°37' W 095°02'0 0.0
2018-Feb-20 21:01N 29°37' W 095°02'0 0.0
2018-Feb-20 20:30N 29°37' W 095°02'0 0.0
2018-Feb-20 20:00N 29°37' W 095°02'0 0.0
2018-Feb-20 19:30N 29°37' W 095°02'0 0.0
2018-Feb-20 19:00N 29°37' W 095°02'0 0.3
2018-Feb-20 18:30N 29°37' W 095°01'0 0.3
2018-Feb-20 18:00N 29°37' W 095°01'0 0.1
2018-Feb-20 17:30N 29°37' W 095°01'0 0.1
2018-Feb-20 17:01N 29°37' W 095°01'0 0.0
2018-Feb-20 16:31N 29°37' W 095°01'0 0.0
2018-Feb-20 16:00N 29°37' W 095°01'0 0.0
2018-Feb-20 15:30N 29°37' W 095°01'0 0.0
2018-Feb-20 15:00N 29°37' W 095°01'0 0.0
2018-Feb-20 14:30N 29°37' W 095°01'0 0.0
2018-Feb-20 14:01N 29°37' W 095°01'0 0.0
2018-Feb-20 13:30N 29°37' W 095°01'0 0.0
2018-Feb-20 13:00N 29°37' W 095°01'0 0.0
2018-Feb-20 11:41N 29°37' W 095°01'0 0.0
2018-Feb-20 11:16N 29°37' W 095°01'0 0.0
2018-Feb-20 11:00N 29°37' W 095°01'0 0.1
2018-Feb-20 08:43N 29°37' W 095°02'0 0.0
2018-Feb-20 08:21N 29°37' W 095°02'0 0.0
2018-Feb-20 08:00N 29°37' W 095°02'0 0.0
2018-Feb-20 07:30N 29°37' W 095°02'0 0.0
2018-Feb-20 07:00N 29°37' W 095°02'0 0.0
2018-Feb-20 06:29N 29°37' W 095°02'0 0.0
2018-Feb-20 06:01N 29°37' W 095°02'0 0.2
2018-Feb-20 05:30N 29°37' W 095°02'0 0.1
2018-Feb-20 05:00N 29°37' W 095°02'0 0.9
2018-Feb-20 04:30N 29°37' W 095°01'3 6.1
2018-Feb-20 04:00N 29°37' W 094°58'3 6.8
2018-Feb-20 03:30N 29°41' W 094°59'3 6.0
2018-Feb-20 03:00N 29°43' W 095°01'4 5.8
2018-Feb-20 02:14N 29°46' W 095°05'0 1.1
2018-Feb-20 01:58N 29°46' W 095°06'0 0.1
2018-Feb-20 01:29N 29°45' W 095°06'0 0.1
2018-Feb-20 00:59N 29°46' W 095°06'0 0.0
2018-Feb-19 22:23N 29°46' W 095°06'2 0.7
2018-Feb-19 20:02N 29°47' W 095°05'1 5.6
2018-Feb-19 19:47N 29°46' W 095°06'0 0.1
2018-Feb-19 17:23N 29°46' W 095°05'3 1.3
2018-Feb-19 15:21N 29°44' W 095°03'0 0.6
2018-Feb-19 14:56N 29°44' W 095°03'0 0.3
2018-Feb-19 14:27N 29°44' W 095°03'2 3.5
2018-Feb-19 13:59N 29°45' W 095°04'1 0.2
2018-Feb-19 09:09N 29°46' W 095°06'0 0.0
2018-Feb-19 08:57N 29°46' W 095°06'1 1.3
2018-Feb-19 08:29N 29°45' W 095°06'0 0.7
2018-Feb-19 08:00N 29°45' W 095°06'1 1.7
2018-Feb-19 07:28N 29°46' W 095°06'0 0.0
2018-Feb-19 07:00N 29°46' W 095°06'0 0.0
2018-Feb-19 06:29N 29°46' W 095°06'0 0.0
2018-Feb-19 06:00N 29°46' W 095°06'0 0.0
2018-Feb-19 05:30N 29°46' W 095°06'0 0.0
2018-Feb-19 05:00N 29°46' W 095°06'0 0.0
2018-Feb-19 04:23N 29°46' W 095°06'0 0.0
2018-Feb-19 01:41N 29°46' W 095°06'0 0.1
2018-Feb-18 22:44N 29°45' W 095°06'0 0.1
2018-Feb-18 22:25N 29°45' W 095°06'0 0.1
2018-Feb-18 19:07N 29°46' W 095°05'0 0.2
2018-Feb-18 17:45N 29°46' W 095°06'0 0.0
2018-Feb-18 17:25N 29°46' W 095°06'0 0.0
2018-Feb-18 16:29N 29°46' W 095°06'0 0.0
2018-Feb-18 16:00N 29°46' W 095°06'0 0.0
2018-Feb-18 14:43N 29°46' W 095°06'0 0.0
2018-Feb-18 11:40N 29°46' W 095°06'0 0.9
2018-Feb-18 11:19N 29°46' W 095°06'0 0.0
2018-Feb-18 02:41N 29°45' W 095°06'0 0.0
2018-Feb-18 00:44N 29°45' W 095°06'0 0.3
2018-Feb-18 00:29N 29°45' W 095°06'0 0.5
2018-Feb-18 00:00N 29°46' W 095°05'0 0.0
2018-Feb-17 07:10N 29°45' W 095°06'0 0.0
2018-Feb-17 06:43N 29°45' W 095°06'0 0.0
2018-Feb-16 11:26N 29°46' W 095°06'0 0.0
2018-Feb-16 10:56N 29°46' W 095°06'0 0.0
2018-Feb-16 10:28N 29°46' W 095°06'0 0.0
2018-Feb-16 09:56N 29°46' W 095°06'0 0.0
2018-Feb-16 09:24N 29°46' W 095°06'0 0.0
2018-Feb-16 08:52N 29°46' W 095°06'0 0.0
2018-Feb-16 08:21N 29°46' W 095°06'0 0.0
2018-Feb-16 07:54N 29°46' W 095°06'0 0.0
2018-Feb-16 07:27N 29°46' W 095°06'0 0.0
2018-Feb-16 07:00N 29°46' W 095°06'0 0.0
2018-Feb-16 06:27N 29°46' W 095°06'0 0.0
2018-Feb-16 05:57N 29°46' W 095°06'0 0.0
2018-Feb-16 05:20N 29°46' W 095°06'0 0.0
2018-Feb-16 04:51N 29°46' W 095°06'0 0.0
2018-Feb-16 04:30N 29°46' W 095°06'0 0.0
2018-Feb-16 03:59N 29°46' W 095°06'0 0.0
2018-Feb-16 03:30N 29°46' W 095°06'0 0.0
2018-Feb-16 02:57N 29°46' W 095°06'0 0.0
2018-Feb-16 02:30N 29°46' W 095°06'0 0.0
2018-Feb-16 01:58N 29°46' W 095°06'0 0.0
2018-Feb-16 01:30N 29°46' W 095°06'0 0.0
2018-Feb-16 00:59N 29°46' W 095°06'  

Dump ship's entire track history